This is the latest recevied weather packets stored in our database for station/object CE3TDM-12. If no packets are shown the sender has not sent any weather packets the latest 10 day(s).
| Time | Temp. | Humidity | Pressure | Rain* | Wind** | Luminosity | Snow |
|---|---|---|---|---|---|---|---|
| 1777751027 | 28.33° C | 31% | 779.1 hPa | - | - | - | - |
| 1777750727 | 28.33° C | 32% | 779.1 hPa | - | - | - | - |
| 1777750426 | 28.89° C | 31% | 779 hPa | - | - | - | - |
| 1777750126 | 28.89° C | 31% | 779.1 hPa | - | - | - | - |
| 1777749825 | 28.89° C | 32% | 778.9 hPa | - | - | - | - |
| 1777749525 | 28.33° C | 31% | 778.2 hPa | - | - | - | - |
| 1777749224 | 29.44° C | 31% | 778.8 hPa | - | - | - | - |
| 1777748924 | 29.44° C | 31% | 778.9 hPa | - | - | - | - |
| 1777748613 | 29.44° C | 31% | 778.8 hPa | - | - | - | - |
| 1777748312 | 28.89° C | 31% | 778.5 hPa | - | - | - | - |
| 1777748012 | 30° C | 31% | 778.8 hPa | - | - | - | - |
| 1777747711 | 30° C | 31% | 778.8 hPa | - | - | - | - |
| 1777747410 | 30° C | 31% | 779 hPa | - | - | - | - |
| 1777747109 | 30° C | 31% | 778.9 hPa | - | - | - | - |
| 1777746806 | 30° C | 32% | 779 hPa | - | - | - | - |
| 1777743910 | 32.22° C | 30% | 779.6 hPa | - | - | - | - |
| 1777743610 | 31.67° C | 31% | 779.7 hPa | - | - | - | - |
| 1777743310 | 31.67° C | 31% | 779.6 hPa | - | - | - | - |
| 1777743009 | 31.11° C | 31% | 779.7 hPa | - | - | - | - |
| 1777742708 | 31.11° C | 32% | 779.7 hPa | - | - | - | - |
| 1777742408 | 30.56° C | 32% | 779.8 hPa | - | - | - | - |
| 1777737280 | 30.56° C | 30% | 780.5 hPa | - | - | - | - |
| 1777736979 | 30.56° C | 30% | 780.5 hPa | - | - | - | - |
| 1777734487 | 30° C | 30% | 780.8 hPa | - | - | - | - |
| 1777734186 | 28.89° C | 30% | 780.9 hPa | - | - | - | - |
* Rain since midnight (hover to see other rain measurements)
** Current wind speed in m/s (hover to see current wind gust speed)